createdAt,value
2022-12-28T00:01:17.626Z,101144.78
2022-12-28T00:03:44.470Z,101148.25
2022-12-28T00:06:11.991Z,101143.91
2022-12-28T00:08:38.874Z,101145.66
2022-12-28T00:11:12.370Z,101144.81
2022-12-28T00:13:45.400Z,101144.03
2022-12-28T00:16:20.921Z,101145.75
2022-12-28T00:18:47.403Z,101141.44
2022-12-28T00:21:13.836Z,101133.59
2022-12-28T00:23:40.327Z,101146.56
2022-12-28T00:26:12.601Z,101137.91
2022-12-28T00:28:39.887Z,101135.38
2022-12-28T00:31:07.038Z,101137.13
2022-12-28T00:33:33.552Z,101140.59
2022-12-28T00:36:02.149Z,101125.91
2022-12-28T00:38:31.572Z,101116.38
2022-12-28T00:40:59.026Z,101118.09
2022-12-28T00:43:26.397Z,101093.81
2022-12-28T00:45:52.894Z,101086.03
2022-12-28T00:48:19.829Z,101097.28
2022-12-28T00:50:46.340Z,101085.16
2022-12-28T00:53:13.334Z,101073.94
2022-12-28T00:55:40.343Z,101064.44
2022-12-28T00:58:07.121Z,101054.97
2022-12-28T01:00:34.650Z,101058.44
2022-12-28T01:03:01.184Z,101046.34
2022-12-28T01:05:27.749Z,101036.00
2022-12-28T01:07:54.387Z,101034.25
2022-12-28T01:10:20.868Z,101030.88
2022-12-28T01:12:47.393Z,101032.59
2022-12-28T01:15:13.961Z,101022.22
2022-12-28T01:17:40.529Z,101023.91
2022-12-28T01:20:08.286Z,101019.56
2022-12-28T01:22:34.829Z,101021.34
2022-12-28T01:25:01.734Z,101022.16
2022-12-28T01:27:28.262Z,101010.09
2022-12-28T01:29:54.717Z,100991.03
2022-12-28T01:32:21.208Z,100997.94
2022-12-28T01:34:47.618Z,101001.41
2022-12-28T01:37:14.023Z,101004.06
2022-12-28T01:39:40.443Z,101007.53
2022-12-28T01:42:18.722Z,100994.56
2022-12-28T01:44:50.810Z,100984.19
2022-12-28T01:47:35.677Z,100980.72
2022-12-28T01:50:10.070Z,100982.47
2022-12-28T01:52:44.893Z,100962.63
2022-12-28T01:55:21.666Z,100963.47
2022-12-28T01:57:54.019Z,100963.50
2022-12-28T02:00:20.849Z,100960.06
2022-12-28T02:03:07.469Z,100951.44
2022-12-28T02:05:40.097Z,100956.63
2022-12-28T02:08:26.749Z,100948.88
2022-12-28T02:10:54.413Z,100946.28
2022-12-28T02:13:22.961Z,100941.97
2022-12-28T02:15:51.123Z,100938.53
2022-12-28T02:18:19.788Z,100936.81
2022-12-28T02:20:58.353Z,100936.81
2022-12-28T02:23:49.711Z,100930.75
2022-12-28T02:26:38.609Z,100935.94
2022-12-28T02:29:34.754Z,100925.59
2022-12-28T02:32:07.116Z,100916.94
2022-12-28T02:34:52.897Z,100921.31
2022-12-28T02:37:27.194Z,100913.53
2022-12-28T02:39:59.658Z,100907.50
2022-12-28T02:42:27.233Z,100905.72
2022-12-28T02:45:12.412Z,100899.72
2022-12-28T02:48:02.313Z,100885.88
2022-12-28T02:51:10.441Z,100887.63
2022-12-28T02:53:59.884Z,100882.47
2022-12-28T02:56:51.515Z,100882.47
2022-12-28T02:59:39.271Z,100874.69
2022-12-28T03:02:15.040Z,100859.97
2022-12-28T03:04:59.492Z,100848.75
2022-12-28T03:08:20.261Z,100847.03
2022-12-28T03:11:09.568Z,100840.09
2022-12-28T03:13:56.307Z,100846.16
2022-12-28T03:16:27.640Z,100835.81
2022-12-28T03:19:19.759Z,100835.75
2022-12-28T03:22:05.660Z,100831.47
2022-12-28T03:24:54.935Z,100815.03
2022-12-28T03:27:40.880Z,100811.59
2022-12-28T03:30:32.509Z,100809.00
2022-12-28T03:32:59.603Z,100793.41
2022-12-28T03:35:42.313Z,100802.06
2022-12-28T03:38:12.798Z,100796.88
2022-12-28T03:40:52.640Z,100805.53
2022-12-28T03:43:43.689Z,100797.75
2022-12-28T03:46:22.371Z,100787.34
2022-12-28T03:48:50.181Z,100795.13
2022-12-28T03:51:21.553Z,100782.19
2022-12-28T03:53:48.462Z,100782.16
2022-12-28T03:56:17.905Z,100780.44
2022-12-28T03:58:44.984Z,100776.09
2022-12-28T04:01:11.943Z,100773.53
2022-12-28T04:03:38.630Z,100769.19
2022-12-28T04:06:05.925Z,100763.13
2022-12-28T04:08:33.498Z,100763.13
2022-12-28T04:11:01.487Z,100761.41
2022-12-28T04:13:31.794Z,100768.31
2022-12-28T04:16:04.097Z,100763.13
2022-12-28T04:18:31.694Z,100764.03
2022-12-28T04:20:58.345Z,100764.91
2022-12-28T04:23:25.051Z,100766.63
2022-12-28T04:26:11.400Z,100754.47
2022-12-28T04:28:38.843Z,100755.38
2022-12-28T04:31:06.559Z,100751.06
2022-12-28T04:33:35.149Z,100751.91
2022-12-28T04:36:11.349Z,100744.13
2022-12-28T04:38:38.474Z,100733.72
2022-12-28T04:41:07.006Z,100735.47
2022-12-28T04:43:34.137Z,100731.13
2022-12-28T04:46:03.509Z,100728.53
2022-12-28T04:48:30.301Z,100719.00
2022-12-28T04:50:56.916Z,100709.47
2022-12-28T04:53:23.900Z,100710.31
2022-12-28T04:55:50.363Z,100711.19
2022-12-28T04:58:16.849Z,100712.06
2022-12-28T05:00:43.678Z,100703.41
2022-12-28T05:03:10.214Z,100710.31
2022-12-28T05:05:38.036Z,100693.00
2022-12-28T05:08:04.923Z,100704.25
2022-12-28T05:10:31.432Z,100706.84
2022-12-28T05:12:57.878Z,100712.06
2022-12-28T05:15:24.311Z,100708.59
2022-12-28T05:17:50.961Z,100706.84
2022-12-28T05:20:19.967Z,100707.72
2022-12-28T05:22:46.834Z,100699.94
2022-12-28T05:25:13.321Z,100688.66
2022-12-28T05:27:39.795Z,100690.38
2022-12-28T05:30:07.165Z,100696.44
2022-12-28T05:32:33.726Z,100694.69
2022-12-28T05:35:00.173Z,100694.69
2022-12-28T05:37:27.071Z,100691.22
2022-12-28T05:39:53.480Z,100685.97
2022-12-28T05:42:19.932Z,100685.91
2022-12-28T05:44:46.413Z,100675.47
2022-12-28T05:47:13.848Z,100670.97
2022-12-28T05:49:40.306Z,100672.66
2022-12-28T05:52:06.877Z,100686.41
2022-12-28T05:54:33.354Z,100668.97
2022-12-28T05:56:59.789Z,100679.44
2022-12-28T05:59:26.551Z,100673.31
2022-12-28T06:01:53.183Z,100668.13
2022-12-28T06:04:21.469Z,100666.47
2022-12-28T06:06:48.722Z,100672.53
2022-12-28T06:09:15.233Z,100667.34
2022-12-28T06:11:41.911Z,100662.91
2022-12-28T06:14:08.846Z,100655.03
2022-12-28T06:16:38.256Z,100655.00
2022-12-28T06:19:10.517Z,100645.47
2022-12-28T06:21:39.739Z,100641.94
2022-12-28T06:24:06.974Z,100633.28
2022-12-28T06:26:35.442Z,100634.06
2022-12-28T06:29:02.124Z,100628.09
2022-12-28T06:31:31.972Z,100630.66
2022-12-28T06:34:00.877Z,100633.16
2022-12-28T06:36:30.389Z,100633.94
2022-12-28T06:38:58.875Z,100628.72
2022-12-28T06:41:26.503Z,100637.44
2022-12-28T06:43:54.088Z,100645.38
2022-12-28T06:46:22.630Z,100641.06
2022-12-28T06:48:50.548Z,100648.81
2022-12-28T06:51:22.721Z,100630.38
2022-12-28T06:53:51.072Z,100638.84
2022-12-28T06:56:18.862Z,100660.66
2022-12-28T06:58:46.790Z,100635.38
2022-12-28T07:01:17.206Z,100650.31
2022-12-28T07:03:45.275Z,100652.03
2022-12-28T07:06:13.582Z,100632.78
2022-12-28T07:08:40.443Z,100645.88
2022-12-28T07:11:13.627Z,100641.63
2022-12-28T07:13:40.318Z,100635.56
2022-12-28T07:16:11.238Z,100648.56
2022-12-28T07:18:38.303Z,100642.53
2022-12-28T07:21:07.872Z,100640.78
2022-12-28T07:23:35.117Z,100651.19
2022-12-28T07:26:07.381Z,100660.84
2022-12-28T07:28:37.478Z,100656.34
2022-12-28T07:31:08.972Z,100634.59
2022-12-28T07:33:37.000Z,100643.25
2022-12-28T07:36:05.967Z,100633.66
2022-12-28T07:38:33.444Z,100635.41
2022-12-28T07:41:13.761Z,100634.63
2022-12-28T07:43:40.514Z,100638.97
2022-12-28T07:46:10.346Z,100646.75
2022-12-28T07:48:37.278Z,100638.00
2022-12-28T07:51:08.243Z,100633.72
2022-12-28T07:53:34.727Z,100633.53
2022-12-28T07:56:01.317Z,100628.38
2022-12-28T07:58:28.107Z,100631.91
2022-12-28T08:00:54.823Z,100626.72
2022-12-28T08:03:21.355Z,100631.78
2022-12-28T08:05:47.834Z,100619.69
2022-12-28T08:08:14.378Z,100625.84
2022-12-28T08:10:40.800Z,100622.41
2022-12-28T08:13:07.211Z,100617.06
2022-12-28T08:15:33.737Z,100619.56
2022-12-28T08:18:00.213Z,100617.88
2022-12-28T08:20:26.662Z,100627.50
2022-12-28T08:22:53.446Z,100626.59
2022-12-28T08:25:19.937Z,100622.16
2022-12-28T08:27:46.382Z,100614.34
2022-12-28T08:30:13.214Z,100616.91
2022-12-28T08:32:39.622Z,100623.09
2022-12-28T08:35:06.391Z,100609.91
2022-12-28T08:37:32.838Z,100616.84
2022-12-28T08:39:59.295Z,100615.91
2022-12-28T08:42:25.748Z,100606.31
2022-12-28T08:44:52.153Z,100618.53
2022-12-28T08:47:18.636Z,100609.94
2022-12-28T08:49:45.117Z,100613.47
2022-12-28T08:52:11.572Z,100613.47
2022-12-28T08:54:38.066Z,100618.66
2022-12-28T08:57:04.497Z,100615.03
2022-12-28T08:59:30.898Z,100614.09
2022-12-28T09:01:57.419Z,100621.09
2022-12-28T09:04:23.998Z,100609.03
2022-12-28T09:06:50.855Z,100611.63
2022-12-28T09:09:19.712Z,100619.34
2022-12-28T09:11:46.483Z,100612.38
2022-12-28T09:14:20.724Z,100611.66
2022-12-28T09:16:49.546Z,100615.19
2022-12-28T09:19:16.196Z,100614.34
2022-12-28T09:21:43.075Z,100616.13
2022-12-28T09:24:09.686Z,100616.88
2022-12-28T09:26:38.312Z,100615.66
2022-12-28T09:29:08.587Z,100608.66
2022-12-28T09:31:37.191Z,100611.34
2022-12-28T09:36:57.755Z,100604.28
2022-12-28T09:39:25.077Z,100612.91
2022-12-28T09:41:57.789Z,100619.13
2022-12-28T09:44:47.635Z,100623.25
2022-12-28T09:47:24.914Z,100612.94
2022-12-28T09:50:06.817Z,100607.78
2022-12-28T09:52:37.019Z,100612.06
2022-12-28T09:55:15.645Z,100618.16
2022-12-28T09:57:45.944Z,100619.88
2022-12-28T10:00:22.595Z,100609.50
2022-12-28T10:02:57.263Z,100606.94
2022-12-28T10:05:23.944Z,100602.59
2022-12-28T10:07:52.943Z,100597.38
2022-12-28T10:10:22.248Z,100600.91
2022-12-28T10:12:50.659Z,100608.59
2022-12-28T10:15:17.797Z,100597.91
2022-12-28T10:17:45.241Z,100598.88
2022-12-28T10:20:18.169Z,100593.66
2022-12-28T10:22:50.333Z,100595.38
2022-12-28T10:25:26.067Z,100593.69
2022-12-28T10:27:53.521Z,100597.19
2022-12-28T10:30:27.128Z,100588.16
2022-12-28T10:33:02.151Z,100584.63
2022-12-28T10:35:48.308Z,100580.50
2022-12-28T10:38:24.424Z,100578.66
2022-12-28T10:41:04.699Z,100576.88
2022-12-28T10:43:34.520Z,100572.50
2022-12-28T10:46:03.884Z,100559.47
2022-12-28T10:48:39.577Z,100573.41
2022-12-28T10:51:18.982Z,100567.19
2022-12-28T10:53:51.524Z,100561.25
2022-12-28T10:56:32.754Z,100573.28
2022-12-28T10:59:12.567Z,100554.09
2022-12-28T11:01:41.803Z,100558.41
2022-12-28T11:04:18.410Z,100554.81
2022-12-28T11:07:00.151Z,100543.38
2022-12-28T11:09:30.702Z,100542.59
2022-12-28T11:12:18.194Z,100548.78
2022-12-28T11:14:44.696Z,100541.84
2022-12-28T11:17:24.935Z,100533.13
2022-12-28T11:19:56.200Z,100540.00
2022-12-28T11:22:27.660Z,100529.69
2022-12-28T11:24:55.369Z,100539.31
2022-12-28T11:27:23.362Z,100516.47
2022-12-28T11:29:52.999Z,100523.63
2022-12-28T11:32:36.032Z,100531.47
2022-12-28T11:35:03.267Z,100514.00
2022-12-28T11:37:29.785Z,100506.97
2022-12-28T11:39:56.344Z,100508.06
2022-12-28T11:42:40.675Z,100525.34
2022-12-28T11:45:16.773Z,100515.72
2022-12-28T11:47:43.702Z,100515.44
2022-12-28T11:50:38.214Z,100517.19
2022-12-28T11:53:21.775Z,100512.75
2022-12-28T11:56:05.939Z,100505.72
2022-12-28T11:58:42.155Z,100497.19
2022-12-28T12:01:37.001Z,100501.53
2022-12-28T12:04:03.606Z,100500.59
2022-12-28T12:06:42.421Z,100493.63
2022-12-28T12:09:21.181Z,100486.03
2022-12-28T12:11:59.398Z,100487.72
2022-12-28T12:14:45.450Z,100486.06
2022-12-28T12:17:30.636Z,100485.09
2022-12-28T12:20:05.228Z,100480.81
2022-12-28T12:22:37.155Z,100481.84
2022-12-28T12:25:18.463Z,100485.16
2022-12-28T12:27:50.016Z,100466.75
2022-12-28T12:30:18.711Z,100460.66
2022-12-28T12:32:58.688Z,100456.38
2022-12-28T12:35:31.223Z,100462.50
2022-12-28T12:38:28.964Z,100462.53
2022-12-28T12:41:18.961Z,100464.44
2022-12-28T12:44:23.274Z,100460.06
2022-12-28T12:47:10.187Z,100460.88
2022-12-28T12:49:59.978Z,100457.38
2022-12-28T12:52:42.436Z,100462.53
2022-12-28T12:55:23.495Z,100456.41
2022-12-28T12:57:58.537Z,100459.69
2022-12-28T13:00:38.636Z,100458.16
2022-12-28T13:03:27.128Z,100443.31
2022-12-28T13:05:56.951Z,100430.38
2022-12-28T13:08:32.858Z,100390.34
2022-12-28T13:11:00.022Z,100381.78
2022-12-28T13:13:36.071Z,100388.97
2022-12-28T13:16:10.305Z,100381.22
2022-12-28T13:18:45.540Z,100391.75
2022-12-28T13:21:20.222Z,100389.13
2022-12-28T13:23:47.050Z,100383.13
2022-12-28T13:26:15.553Z,100390.91
2022-12-28T13:29:03.615Z,100389.97
2022-12-28T13:31:35.169Z,100377.81
2022-12-28T13:34:15.796Z,100377.88
2022-12-28T13:36:56.418Z,100377.09
2022-12-28T13:39:25.214Z,100365.63
2022-12-28T13:41:58.202Z,100352.56
2022-12-28T13:44:50.730Z,100354.28
2022-12-28T13:47:41.583Z,100342.03
2022-12-28T13:50:16.338Z,100336.09
2022-12-28T13:52:45.434Z,100318.72
2022-12-28T13:55:22.389Z,100321.19
2022-12-28T13:57:59.156Z,100308.22
2022-12-28T14:00:29.435Z,100303.91
2022-12-28T14:02:58.725Z,100332.63
2022-12-28T14:05:29.687Z,100340.50
2022-12-28T14:07:58.453Z,100344.72
2022-12-28T14:10:26.240Z,100343.06
2022-12-28T14:12:53.462Z,100329.13
2022-12-28T14:15:20.774Z,100327.28
2022-12-28T14:17:49.497Z,100321.25
2022-12-28T14:20:16.510Z,100319.38
2022-12-28T14:22:44.322Z,100314.34
2022-12-28T14:25:19.678Z,100308.28
2022-12-28T14:27:57.345Z,100302.28
2022-12-28T14:30:50.913Z,100298.78
2022-12-28T14:33:24.583Z,100290.94
2022-12-28T14:35:58.412Z,100284.84
2022-12-28T14:38:47.119Z,100286.59
2022-12-28T14:41:18.110Z,100272.63
2022-12-28T14:43:52.824Z,100271.78
2022-12-28T14:46:34.901Z,100276.91
2022-12-28T14:49:24.189Z,100272.75
2022-12-28T14:51:50.714Z,100265.81
2022-12-28T14:54:21.848Z,100260.47
2022-12-28T14:56:52.204Z,100264.84
2022-12-28T14:59:24.830Z,100252.69
2022-12-28T15:01:51.687Z,100245.72
2022-12-28T15:04:27.560Z,100237.03
2022-12-28T15:06:54.845Z,100227.44
2022-12-28T15:09:21.832Z,100229.22
2022-12-28T15:11:48.399Z,100223.88
2022-12-28T15:14:14.910Z,100220.44
2022-12-28T15:16:41.384Z,100214.38
2022-12-28T15:19:07.932Z,100215.13
2022-12-28T15:21:34.524Z,100205.63
2022-12-28T15:24:01.005Z,100205.66
2022-12-28T15:26:30.663Z,100207.31
2022-12-28T15:28:57.125Z,100198.66
2022-12-28T15:31:23.762Z,100195.94
2022-12-28T15:33:50.270Z,100199.44
2022-12-28T15:36:19.666Z,100197.84
2022-12-28T15:38:47.411Z,100185.69
2022-12-28T15:41:33.648Z,100190.94
2022-12-28T15:44:00.175Z,100180.63
2022-12-28T15:46:26.898Z,100172.78
2022-12-28T15:48:53.398Z,100174.38
2022-12-28T15:51:19.844Z,100157.81
2022-12-28T15:53:46.283Z,100157.81
2022-12-28T15:56:24.399Z,100147.41
2022-12-28T15:58:54.145Z,100145.75
2022-12-28T16:01:21.154Z,100145.66
2022-12-28T16:03:52.475Z,100150.00
2022-12-28T16:06:20.235Z,100149.13
2022-12-28T16:08:47.262Z,100139.53
2022-12-28T16:11:18.522Z,100130.00
2022-12-28T16:13:53.886Z,100127.38
2022-12-28T16:16:21.588Z,100128.25
2022-12-28T16:18:48.904Z,100128.09
2022-12-28T16:21:15.600Z,100119.34
2022-12-28T16:23:44.046Z,100118.53
2022-12-28T16:26:12.818Z,100126.38
2022-12-28T16:28:40.063Z,100110.72
2022-12-28T16:31:07.050Z,100108.91
2022-12-28T16:33:33.869Z,100101.94
2022-12-28T16:36:00.449Z,100094.34
2022-12-28T16:38:28.725Z,100093.25
2022-12-28T16:40:56.955Z,100094.09
2022-12-28T16:43:24.147Z,100080.19
2022-12-28T16:45:50.758Z,100073.06
2022-12-28T16:48:17.287Z,100069.59
2022-12-28T16:50:43.787Z,100065.22
2022-12-28T16:53:10.260Z,100053.06
2022-12-28T16:55:42.190Z,100048.00
2022-12-28T16:58:09.720Z,100052.28
2022-12-28T17:00:36.227Z,100045.44
2022-12-28T17:03:02.953Z,100039.53
2022-12-28T17:05:35.993Z,100032.72
2022-12-28T17:08:04.119Z,100025.81
2022-12-28T17:10:31.252Z,100033.72
2022-12-28T17:12:57.728Z,100027.69
2022-12-28T17:15:24.471Z,100027.81
2022-12-28T17:17:50.979Z,100031.41
2022-12-28T17:20:17.891Z,100040.16
2022-12-28T17:22:44.412Z,100036.75
2022-12-28T17:25:10.848Z,100028.91
2022-12-28T17:27:37.260Z,100040.22
2022-12-28T17:30:03.923Z,100030.69
2022-12-28T17:32:30.321Z,100031.63
2022-12-28T17:34:56.818Z,100035.19
2022-12-28T17:37:23.311Z,100032.59
2022-12-28T17:39:49.877Z,100026.56
2022-12-28T17:42:16.344Z,100018.78
2022-12-28T17:44:45.756Z,100023.19
2022-12-28T17:47:12.263Z,100021.47
2022-12-28T17:49:38.689Z,100005.91
2022-12-28T17:52:05.408Z,100002.47
2022-12-28T17:54:32.248Z,100002.41
2022-12-28T17:56:58.733Z,100001.63
2022-12-28T17:59:25.540Z,99998.97
2022-12-28T18:01:53.579Z,99995.47
2022-12-28T18:04:20.189Z,99992.09
2022-12-28T18:06:46.674Z,99984.28
2022-12-28T18:09:13.119Z,99982.56
2022-12-28T18:11:39.538Z,99979.94
2022-12-28T18:14:07.712Z,99977.41
2022-12-28T18:16:34.433Z,99977.38
2022-12-28T18:19:00.927Z,99979.13
2022-12-28T18:21:28.406Z,99971.31
2022-12-28T18:23:54.947Z,99964.38
2022-12-28T18:26:25.988Z,99957.50
2022-12-28T18:28:53.277Z,99959.22
2022-12-28T18:31:20.450Z,99953.19
2022-12-28T18:33:46.929Z,99947.97
2022-12-28T18:36:17.742Z,99940.22
2022-12-28T18:38:45.279Z,99941.16
2022-12-28T18:41:13.535Z,99943.81
2022-12-28T18:43:40.561Z,99945.53
2022-12-28T18:46:08.752Z,99930.78
2022-12-28T18:48:37.270Z,99930.81
2022-12-28T18:51:11.370Z,99929.13
2022-12-28T18:53:38.417Z,99924.81
2022-12-28T18:56:06.259Z,99913.56
2022-12-28T18:58:35.921Z,99915.28
2022-12-28T19:01:04.818Z,99917.91
2022-12-28T19:03:31.549Z,99904.03
2022-12-28T19:06:03.524Z,99904.03
2022-12-28T19:08:31.427Z,99910.97
2022-12-28T19:10:58.217Z,99900.53
2022-12-28T19:13:24.690Z,99903.19
2022-12-28T19:15:52.263Z,99895.41
2022-12-28T19:18:19.623Z,99899.75
2022-12-28T19:20:46.095Z,99885.00
2022-12-28T19:23:12.491Z,99886.75
2022-12-28T19:25:39.240Z,99885.84
2022-12-28T19:28:06.483Z,99886.69
2022-12-28T19:30:32.929Z,99879.78
2022-12-28T19:32:59.348Z,99884.09
2022-12-28T19:35:25.800Z,99880.66
2022-12-28T19:37:52.189Z,99872.81
2022-12-28T19:40:18.664Z,99878.03
2022-12-28T19:42:45.073Z,99865.84
2022-12-28T19:45:11.867Z,99865.84
2022-12-28T19:47:38.339Z,99863.25
2022-12-28T19:50:05.175Z,99856.25
2022-12-28T19:52:33.020Z,99854.53
2022-12-28T19:54:59.573Z,99850.22
2022-12-28T19:57:26.091Z,99851.88
2022-12-28T19:59:52.513Z,99846.72
2022-12-28T20:02:19.128Z,99842.31
2022-12-28T20:04:45.643Z,99851.88
2022-12-28T20:07:12.149Z,99846.56
2022-12-28T20:09:38.632Z,99836.16
2022-12-28T20:12:05.374Z,99834.44
2022-12-28T20:14:31.862Z,99832.69
2022-12-28T20:16:58.252Z,99830.03
2022-12-28T20:19:24.755Z,99837.78
2022-12-28T20:21:51.295Z,99826.59
2022-12-28T20:24:19.921Z,99829.97
2022-12-28T20:26:46.369Z,99822.16
2022-12-28T20:29:16.222Z,99818.66
2022-12-28T20:31:42.844Z,99815.16
2022-12-28T20:34:09.342Z,99809.97
2022-12-28T20:36:36.096Z,99822.94
2022-12-28T20:39:03.229Z,99815.16
2022-12-28T20:41:49.676Z,99816.88
2022-12-28T20:44:22.331Z,99802.94
2022-12-28T20:46:48.873Z,99804.63
2022-12-28T20:49:15.536Z,99795.84
2022-12-28T20:51:42.676Z,99809.78
2022-12-28T20:54:10.582Z,99803.69
2022-12-28T20:56:38.513Z,99802.00
2022-12-28T20:59:05.753Z,99801.09
2022-12-28T21:01:32.412Z,99799.34
2022-12-28T21:03:59.052Z,99797.59
2022-12-28T21:06:25.644Z,99797.59
2022-12-28T21:08:52.231Z,99783.63
2022-12-28T21:11:19.061Z,99785.28
2022-12-28T21:13:45.629Z,99794.81
2022-12-28T21:16:13.493Z,99792.97
2022-12-28T21:18:40.846Z,99792.84
2022-12-28T21:21:14.100Z,99793.69
2022-12-28T21:23:40.537Z,99799.78
2022-12-28T21:26:11.462Z,99790.16
2022-12-28T21:28:37.948Z,99794.53
2022-12-28T21:31:06.135Z,99793.53
2022-12-28T21:33:33.559Z,99793.44
2022-12-28T21:36:10.170Z,99788.19
2022-12-28T21:38:38.960Z,99788.13
2022-12-28T21:41:44.099Z,99782.00
2022-12-28T21:44:12.834Z,99773.28
2022-12-28T21:46:39.875Z,99770.66
2022-12-28T21:49:06.640Z,99768.06
2022-12-28T21:51:37.415Z,99765.38
2022-12-28T21:54:15.593Z,99757.59
2022-12-28T21:56:43.596Z,99756.59
2022-12-28T21:59:12.180Z,99753.97
2022-12-28T22:01:59.451Z,99753.19
2022-12-28T22:04:45.404Z,99752.22
2022-12-28T22:07:13.891Z,99748.75
2022-12-28T22:09:58.992Z,99742.63
2022-12-28T22:12:35.881Z,99746.00
2022-12-28T22:15:24.179Z,99748.72
2022-12-28T22:17:53.991Z,99749.50
2022-12-28T22:20:20.577Z,99742.38
2022-12-28T22:22:47.130Z,99757.09
2022-12-28T22:25:13.926Z,99758.97
2022-12-28T22:27:40.588Z,99747.56
2022-12-28T22:30:07.727Z,99758.06
2022-12-28T22:32:34.195Z,99752.78
2022-12-28T22:35:00.594Z,99756.34
2022-12-28T22:37:27.059Z,99750.13
2022-12-28T22:39:53.496Z,99750.22
2022-12-28T22:42:20.232Z,99746.75
2022-12-28T22:44:46.657Z,99735.41
2022-12-28T22:47:13.095Z,99738.81
2022-12-28T22:49:39.644Z,99728.34
2022-12-28T22:52:06.150Z,99724.88
2022-12-28T22:54:32.575Z,99730.19
2022-12-28T22:56:59.072Z,99722.28
2022-12-28T22:59:25.605Z,99727.53
2022-12-28T23:01:55.186Z,99739.69
2022-12-28T23:04:21.808Z,99734.56
2022-12-28T23:06:48.397Z,99723.06
2022-12-28T23:09:14.852Z,99710.94
2022-12-28T23:11:41.384Z,99713.50
2022-12-28T23:14:26.449Z,99716.09
2022-12-28T23:16:53.494Z,99710.06
2022-12-28T23:19:39.126Z,99717.94
2022-12-28T23:22:25.489Z,99716.09
2022-12-28T23:25:10.693Z,99703.91
2022-12-28T23:27:40.144Z,99708.97
2022-12-28T23:30:09.824Z,99691.50
2022-12-28T23:32:36.242Z,99705.44
2022-12-28T23:35:03.871Z,99689.63
2022-12-28T23:37:30.529Z,99686.13
2022-12-28T23:39:56.936Z,99675.78
2022-12-28T23:42:23.438Z,99672.31
2022-12-28T23:44:49.906Z,99675.84
2022-12-28T23:47:17.342Z,99660.06
2022-12-28T23:49:43.867Z,99648.78
2022-12-28T23:52:10.677Z,99649.66
2022-12-28T23:54:37.579Z,99650.38
2022-12-28T23:57:04.519Z,99644.34
2022-12-28T23:59:30.975Z,99651.38
